sensor_id;sensor_type;location;lat;lon;timestamp;pressure;altitude;pressure_sealevel;temperature;humidity
28306;BME280;7516;43.570;1.448;2022-08-18T00:01:22;99473.22;;;20.37;84.14
28306;BME280;7516;43.570;1.448;2022-08-18T00:03:51;99469.53;;;20.38;83.83
28306;BME280;7516;43.570;1.448;2022-08-18T00:06:18;99474.84;;;20.38;83.77
28306;BME280;7516;43.570;1.448;2022-08-18T00:08:46;99471.63;;;20.36;83.56
28306;BME280;7516;43.570;1.448;2022-08-18T00:11:14;99470.47;;;20.32;84.55
28306;BME280;7516;43.570;1.448;2022-08-18T00:13:42;99465.63;;;20.28;84.64
28306;BME280;7516;43.570;1.448;2022-08-18T00:16:11;99469.50;;;20.21;84.01
28306;BME280;7516;43.570;1.448;2022-08-18T00:18:38;99468.84;;;20.14;85.00
28306;BME280;7516;43.570;1.448;2022-08-18T00:21:06;99469.53;;;20.09;84.48
28306;BME280;7516;43.570;1.448;2022-08-18T00:23:33;99476.94;;;20.07;84.88
28306;BME280;7516;43.570;1.448;2022-08-18T00:26:00;99468.44;;;20.05;85.25
28306;BME280;7516;43.570;1.448;2022-08-18T00:28:29;99460.91;;;20.02;85.19
28306;BME280;7516;43.570;1.448;2022-08-18T00:30:57;99453.63;;;19.98;85.33
28306;BME280;7516;43.570;1.448;2022-08-18T00:33:26;99449.63;;;19.95;84.90
28306;BME280;7516;43.570;1.448;2022-08-18T00:35:53;99454.84;;;19.90;84.96
28306;BME280;7516;43.570;1.448;2022-08-18T00:38:21;99458.47;;;19.84;86.04
28306;BME280;7516;43.570;1.448;2022-08-18T00:40:50;99462.63;;;19.80;86.08
28306;BME280;7516;43.570;1.448;2022-08-18T00:43:22;99459.06;;;19.74;85.71
28306;BME280;7516;43.570;1.448;2022-08-18T00:45:52;99459.88;;;19.75;86.14
28306;BME280;7516;43.570;1.448;2022-08-18T00:48:20;99455.72;;;19.79;86.90
28306;BME280;7516;43.570;1.448;2022-08-18T00:50:52;99463.44;;;19.80;85.77
28306;BME280;7516;43.570;1.448;2022-08-18T00:53:26;99456.50;;;19.79;85.57
28306;BME280;7516;43.570;1.448;2022-08-18T00:55:57;99449.25;;;19.75;85.68
28306;BME280;7516;43.570;1.448;2022-08-18T00:58:28;99448.91;;;19.71;86.46
28306;BME280;7516;43.570;1.448;2022-08-18T01:00:58;99447.28;;;19.70;86.41
28306;BME280;7516;43.570;1.448;2022-08-18T01:03:26;99440.38;;;19.69;86.51
28306;BME280;7516;43.570;1.448;2022-08-18T01:06:00;99430.44;;;19.65;86.44
28306;BME280;7516;43.570;1.448;2022-08-18T01:08:30;99430.13;;;19.61;88.01
28306;BME280;7516;43.570;1.448;2022-08-18T01:10:58;99429.31;;;19.61;87.82
28306;BME280;7516;43.570;1.448;2022-08-18T01:13:30;99436.47;;;19.60;86.66
28306;BME280;7516;43.570;1.448;2022-08-18T01:15:59;99445.50;;;19.59;87.88
28306;BME280;7516;43.570;1.448;2022-08-18T01:18:47;99443.88;;;19.58;86.96
28306;BME280;7516;43.570;1.448;2022-08-18T01:21:40;99437.28;;;19.61;88.16
28306;BME280;7516;43.570;1.448;2022-08-18T01:24:22;99429.88;;;19.63;87.13
28306;BME280;7516;43.570;1.448;2022-08-18T01:27:13;99430.91;;;19.62;88.04
28306;BME280;7516;43.570;1.448;2022-08-18T01:29:43;99419.72;;;19.60;87.62
28306;BME280;7516;43.570;1.448;2022-08-18T01:32:14;99421.22;;;19.56;88.00
28306;BME280;7516;43.570;1.448;2022-08-18T01:34:45;99420.56;;;19.48;86.82
28306;BME280;7516;43.570;1.448;2022-08-18T01:37:15;99417.53;;;19.45;88.03
28306;BME280;7516;43.570;1.448;2022-08-18T01:39:45;99422.53;;;19.41;87.51
28306;BME280;7516;43.570;1.448;2022-08-18T01:42:14;99421.38;;;19.37;88.08
28306;BME280;7516;43.570;1.448;2022-08-18T01:44:43;99416.22;;;19.31;87.21
28306;BME280;7516;43.570;1.448;2022-08-18T01:47:12;99407.06;;;19.27;87.91
28306;BME280;7516;43.570;1.448;2022-08-18T01:49:40;99417.38;;;19.23;87.70
28306;BME280;7516;43.570;1.448;2022-08-18T01:52:09;99406.09;;;19.16;88.90
28306;BME280;7516;43.570;1.448;2022-08-18T01:54:37;99410.81;;;19.14;88.14
28306;BME280;7516;43.570;1.448;2022-08-18T01:57:07;99405.16;;;19.10;88.41
28306;BME280;7516;43.570;1.448;2022-08-18T01:59:40;99414.97;;;19.10;89.18
28306;BME280;7516;43.570;1.448;2022-08-18T02:02:08;99422.41;;;19.08;89.73
28306;BME280;7516;43.570;1.448;2022-08-18T02:04:36;99425.88;;;19.08;88.49
28306;BME280;7516;43.570;1.448;2022-08-18T02:07:06;99424.00;;;19.09;88.52
28306;BME280;7516;43.570;1.448;2022-08-18T02:09:34;99427.38;;;19.04;88.37
28306;BME280;7516;43.570;1.448;2022-08-18T02:12:03;99423.09;;;19.03;88.38
28306;BME280;7516;43.570;1.448;2022-08-18T02:14:33;99417.19;;;19.01;88.59
28306;BME280;7516;43.570;1.448;2022-08-18T02:17:03;99422.84;;;19.05;88.69
28306;BME280;7516;43.570;1.448;2022-08-18T02:19:32;99423.22;;;19.08;90.09
28306;BME280;7516;43.570;1.448;2022-08-18T02:22:01;99427.22;;;19.11;90.12
28306;BME280;7516;43.570;1.448;2022-08-18T02:24:28;99430.47;;;19.13;90.15
28306;BME280;7516;43.570;1.448;2022-08-18T02:26:56;99426.19;;;19.12;89.71
28306;BME280;7516;43.570;1.448;2022-08-18T02:29:24;99422.50;;;19.13;90.04
28306;BME280;7516;43.570;1.448;2022-08-18T02:31:53;99421.44;;;19.14;89.78
28306;BME280;7516;43.570;1.448;2022-08-18T02:34:20;99417.75;;;19.15;90.15
28306;BME280;7516;43.570;1.448;2022-08-18T02:36:48;99416.38;;;19.12;90.06
28306;BME280;7516;43.570;1.448;2022-08-18T02:39:15;99408.84;;;19.09;89.16
28306;BME280;7516;43.570;1.448;2022-08-18T02:41:43;99418.44;;;19.10;90.31
28306;BME280;7516;43.570;1.448;2022-08-18T02:44:11;99421.91;;;19.11;89.17
28306;BME280;7516;43.570;1.448;2022-08-18T02:46:38;99416.94;;;19.14;90.27
28306;BME280;7516;43.570;1.448;2022-08-18T02:49:07;99417.53;;;19.16;89.30
28306;BME280;7516;43.570;1.448;2022-08-18T02:51:35;99418.34;;;19.17;89.94
28306;BME280;7516;43.570;1.448;2022-08-18T02:54:03;99419.94;;;19.18;90.16
28306;BME280;7516;43.570;1.448;2022-08-18T02:56:34;99422.94;;;19.22;90.34
28306;BME280;7516;43.570;1.448;2022-08-18T02:59:04;99422.47;;;19.25;89.80
28306;BME280;7516;43.570;1.448;2022-08-18T03:01:34;99430.19;;;19.26;89.18
28306;BME280;7516;43.570;1.448;2022-08-18T03:04:04;99416.66;;;19.28;89.93
28306;BME280;7516;43.570;1.448;2022-08-18T03:06:35;99417.16;;;19.25;89.50
28306;BME280;7516;43.570;1.448;2022-08-18T03:09:04;99410.22;;;19.24;89.47
28306;BME280;7516;43.570;1.448;2022-08-18T03:11:32;99408.94;;;19.26;88.71
28306;BME280;7516;43.570;1.448;2022-08-18T03:14:00;99419.09;;;19.29;88.64
28306;BME280;7516;43.570;1.448;2022-08-18T03:16:28;99412.97;;;19.29;88.73
28306;BME280;7516;43.570;1.448;2022-08-18T03:18:58;99410.53;;;19.27;89.28
28306;BME280;7516;43.570;1.448;2022-08-18T03:21:28;99405.72;;;19.24;88.75
28306;BME280;7516;43.570;1.448;2022-08-18T03:23:58;99409.19;;;19.25;89.00
28306;BME280;7516;43.570;1.448;2022-08-18T03:26:26;99400.41;;;19.24;89.94
28306;BME280;7516;43.570;1.448;2022-08-18T03:28:55;99417.63;;;19.22;88.90
28306;BME280;7516;43.570;1.448;2022-08-18T03:31:25;99416.00;;;19.21;90.05
28306;BME280;7516;43.570;1.448;2022-08-18T03:33:53;99420.84;;;19.24;89.94
28306;BME280;7516;43.570;1.448;2022-08-18T03:36:24;99426.16;;;19.24;88.96
28306;BME280;7516;43.570;1.448;2022-08-18T03:38:53;99432.06;;;19.26;89.73
28306;BME280;7516;43.570;1.448;2022-08-18T03:41:24;99426.97;;;19.24;90.07
28306;BME280;7516;43.570;1.448;2022-08-18T03:43:53;99431.47;;;19.24;89.60
28306;BME280;7516;43.570;1.448;2022-08-18T03:46:21;99445.09;;;19.27;89.93
28306;BME280;7516;43.570;1.448;2022-08-18T03:48:50;99460.56;;;19.30;88.73
28306;BME280;7516;43.570;1.448;2022-08-18T03:51:20;99454.69;;;19.28;88.52
28306;BME280;7516;43.570;1.448;2022-08-18T03:53:50;99464.84;;;19.31;89.64
28306;BME280;7516;43.570;1.448;2022-08-18T03:56:21;99461.72;;;19.34;89.90
28306;BME280;7516;43.570;1.448;2022-08-18T03:58:51;99466.47;;;19.32;88.60
28306;BME280;7516;43.570;1.448;2022-08-18T04:01:22;99457.34;;;19.28;89.68
28306;BME280;7516;43.570;1.448;2022-08-18T04:03:52;99457.56;;;19.27;89.85
28306;BME280;7516;43.570;1.448;2022-08-18T04:06:24;99455.50;;;19.29;90.04
28306;BME280;7516;43.570;1.448;2022-08-18T04:08:53;99457.47;;;19.33;89.78
28306;BME280;7516;43.570;1.448;2022-08-18T04:11:23;99452.59;;;19.30;89.86
28306;BME280;7516;43.570;1.448;2022-08-18T04:13:50;99456.88;;;19.31;89.01
28306;BME280;7516;43.570;1.448;2022-08-18T04:16:19;99453.06;;;19.27;88.67
28306;BME280;7516;43.570;1.448;2022-08-18T04:18:46;99456.75;;;19.26;88.72
28306;BME280;7516;43.570;1.448;2022-08-18T04:21:13;99453.78;;;19.23;89.35
28306;BME280;7516;43.570;1.448;2022-08-18T04:23:41;99449.28;;;19.23;89.80
28306;BME280;7516;43.570;1.448;2022-08-18T04:26:10;99444.09;;;19.16;89.45
28306;BME280;7516;43.570;1.448;2022-08-18T04:28:40;99438.66;;;19.11;88.78
28306;BME280;7516;43.570;1.448;2022-08-18T04:31:09;99450.31;;;19.10;88.74
28306;BME280;7516;43.570;1.448;2022-08-18T04:33:38;99437.28;;;19.09;89.88
28306;BME280;7516;43.570;1.448;2022-08-18T04:36:11;99436.22;;;19.10;89.90
28306;BME280;7516;43.570;1.448;2022-08-18T04:38:40;99444.91;;;19.05;90.40
28306;BME280;7516;43.570;1.448;2022-08-18T04:41:09;99438.66;;;19.00;90.20
28306;BME280;7516;43.570;1.448;2022-08-18T04:43:39;99439.03;;;18.92;90.32
28306;BME280;7516;43.570;1.448;2022-08-18T04:46:08;99422.78;;;18.88;90.51
28306;BME280;7516;43.570;1.448;2022-08-18T04:48:38;99418.19;;;18.72;88.90
28306;BME280;7516;43.570;1.448;2022-08-18T04:51:08;99415.59;;;18.42;89.96
28306;BME280;7516;43.570;1.448;2022-08-18T04:53:37;99416.88;;;18.28;92.57
28306;BME280;7516;43.570;1.448;2022-08-18T04:56:13;99434.16;;;18.19;91.93
28306;BME280;7516;43.570;1.448;2022-08-18T04:58:46;99428.03;;;18.18;94.27
28306;BME280;7516;43.570;1.448;2022-08-18T05:01:16;99433.13;;;18.20;94.31
28306;BME280;7516;43.570;1.448;2022-08-18T05:03:44;99436.91;;;18.24;95.75
28306;BME280;7516;43.570;1.448;2022-08-18T05:06:11;99455.97;;;18.32;95.08
28306;BME280;7516;43.570;1.448;2022-08-18T05:08:39;99458.50;;;18.39;95.47
28306;BME280;7516;43.570;1.448;2022-08-18T05:11:07;99461.75;;;18.41;95.85
28306;BME280;7516;43.570;1.448;2022-08-18T05:13:34;99460.25;;;18.45;96.49
28306;BME280;7516;43.570;1.448;2022-08-18T05:16:04;99465.56;;;18.45;97.54
28306;BME280;7516;43.570;1.448;2022-08-18T05:18:33;99461.28;;;18.44;96.69
28306;BME280;7516;43.570;1.448;2022-08-18T05:21:04;99467.19;;;18.46;98.71
28306;BME280;7516;43.570;1.448;2022-08-18T05:23:32;99475.72;;;18.48;97.33
28306;BME280;7516;43.570;1.448;2022-08-18T05:26:00;99481.00;;;18.48;97.74
28306;BME280;7516;43.570;1.448;2022-08-18T05:28:28;99478.84;;;18.45;98.85
28306;BME280;7516;43.570;1.448;2022-08-18T05:30:56;99483.13;;;18.46;97.97
28306;BME280;7516;43.570;1.448;2022-08-18T05:33:25;99472.94;;;18.43;99.24
28306;BME280;7516;43.570;1.448;2022-08-18T05:35:59;99479.88;;;18.44;99.47
28306;BME280;7516;43.570;1.448;2022-08-18T05:38:37;99487.63;;;18.46;98.45
28306;BME280;7516;43.570;1.448;2022-08-18T05:41:09;99478.84;;;18.45;99.98
28306;BME280;7516;43.570;1.448;2022-08-18T05:43:38;99481.81;;;18.49;99.62
28306;BME280;7516;43.570;1.448;2022-08-18T05:46:08;99490.00;;;18.47;98.66
28306;BME280;7516;43.570;1.448;2022-08-18T05:48:37;99484.72;;;18.47;98.97
28306;BME280;7516;43.570;1.448;2022-08-18T05:51:13;99482.31;;;18.46;98.73
28306;BME280;7516;43.570;1.448;2022-08-18T05:53:43;99486.81;;;18.45;98.69
28306;BME280;7516;43.570;1.448;2022-08-18T05:56:32;99488.41;;;18.46;99.45
28306;BME280;7516;43.570;1.448;2022-08-18T05:59:21;99484.25;;;18.50;99.17
28306;BME280;7516;43.570;1.448;2022-08-18T06:01:55;99481.16;;;18.53;99.60
28306;BME280;7516;43.570;1.448;2022-08-18T06:04:43;99480.47;;;18.58;99.09
28306;BME280;7516;43.570;1.448;2022-08-18T06:07:17;99485.78;;;18.58;99.77
28306;BME280;7516;43.570;1.448;2022-08-18T06:09:48;99492.50;;;18.60;100.00
28306;BME280;7516;43.570;1.448;2022-08-18T06:12:23;99483.28;;;18.63;100.00
28306;BME280;7516;43.570;1.448;2022-08-18T06:14:56;99482.00;;;18.65;100.00
28306;BME280;7516;43.570;1.448;2022-08-18T06:17:42;99477.84;;;18.69;100.00
28306;BME280;7516;43.570;1.448;2022-08-18T06:20:20;99481.09;;;18.71;100.00
28306;BME280;7516;43.570;1.448;2022-08-18T06:23:00;99478.22;;;18.73;99.75
28306;BME280;7516;43.570;1.448;2022-08-18T06:25:34;99475.28;;;18.74;99.48
28306;BME280;7516;43.570;1.448;2022-08-18T06:28:06;99460.97;;;18.75;99.37
28306;BME280;7516;43.570;1.448;2022-08-18T06:30:46;99466.28;;;18.75;99.89
28306;BME280;7516;43.570;1.448;2022-08-18T06:33:25;99461.44;;;18.84;99.87
28306;BME280;7516;43.570;1.448;2022-08-18T06:36:02;99462.38;;;18.90;98.81
28306;BME280;7516;43.570;1.448;2022-08-18T06:38:43;99460.06;;;18.93;98.81
28306;BME280;7516;43.570;1.448;2022-08-18T06:41:17;99466.41;;;19.04;99.21
28306;BME280;7516;43.570;1.448;2022-08-18T06:43:55;99489.50;;;19.03;98.81
28306;BME280;7516;43.570;1.448;2022-08-18T06:46:31;99493.53;;;19.06;98.66
28306;BME280;7516;43.570;1.448;2022-08-18T06:49:04;99501.03;;;19.09;97.15
28306;BME280;7516;43.570;1.448;2022-08-18T06:51:35;99504.75;;;19.08;98.02
28306;BME280;7516;43.570;1.448;2022-08-18T06:54:06;99521.25;;;19.10;97.90
28306;BME280;7516;43.570;1.448;2022-08-18T06:56:45;99525.53;;;19.11;98.38
28306;BME280;7516;43.570;1.448;2022-08-18T06:59:20;99525.19;;;19.07;98.16
28306;BME280;7516;43.570;1.448;2022-08-18T07:01:52;99529.13;;;19.05;96.55
28306;BME280;7516;43.570;1.448;2022-08-18T07:04:39;99542.97;;;19.07;97.81
28306;BME280;7516;43.570;1.448;2022-08-18T07:07:18;99550.00;;;19.01;97.66
28306;BME280;7516;43.570;1.448;2022-08-18T07:09:48;99548.66;;;18.99;97.15
28306;BME280;7516;43.570;1.448;2022-08-18T07:12:22;99553.69;;;19.00;98.13
28306;BME280;7516;43.570;1.448;2022-08-18T07:14:53;99550.38;;;19.05;97.61
28306;BME280;7516;43.570;1.448;2022-08-18T07:17:24;99558.34;;;19.05;97.97
28306;BME280;7516;43.570;1.448;2022-08-18T07:20:01;99550.47;;;19.10;98.27
28306;BME280;7516;43.570;1.448;2022-08-18T07:22:31;99564.00;;;19.20;97.82
28306;BME280;7516;43.570;1.448;2022-08-18T07:25:00;99570.00;;;19.27;97.84
28306;BME280;7516;43.570;1.448;2022-08-18T07:27:43;99571.03;;;19.38;96.69
28306;BME280;7516;43.570;1.448;2022-08-18T07:30:12;99567.44;;;19.44;97.12
28306;BME280;7516;43.570;1.448;2022-08-18T07:32:44;99570.91;;;19.44;95.96
28306;BME280;7516;43.570;1.448;2022-08-18T07:35:15;99570.34;;;19.42;95.96
28306;BME280;7516;43.570;1.448;2022-08-18T07:37:50;99577.03;;;19.45;95.93
28306;BME280;7516;43.570;1.448;2022-08-18T07:40:24;99581.91;;;19.48;96.43
28306;BME280;7516;43.570;1.448;2022-08-18T07:42:57;99588.47;;;19.45;96.70
28306;BME280;7516;43.570;1.448;2022-08-18T07:45:31;99582.25;;;19.40;95.96
28306;BME280;7516;43.570;1.448;2022-08-18T07:48:04;99580.84;;;19.37;96.48
28306;BME280;7516;43.570;1.448;2022-08-18T07:50:38;99588.47;;;19.45;96.61
28306;BME280;7516;43.570;1.448;2022-08-18T07:53:16;99585.03;;;19.57;96.49
28306;BME280;7516;43.570;1.448;2022-08-18T07:55:52;99586.88;;;19.68;95.40
28306;BME280;7516;43.570;1.448;2022-08-18T07:58:33;99585.69;;;19.75;95.18
28306;BME280;7516;43.570;1.448;2022-08-18T08:01:11;99581.28;;;19.81;94.61
28306;BME280;7516;43.570;1.448;2022-08-18T08:03:46;99579.34;;;19.76;95.21
28306;BME280;7516;43.570;1.448;2022-08-18T08:06:22;99578.59;;;19.81;94.68
28306;BME280;7516;43.570;1.448;2022-08-18T08:09:00;99567.13;;;19.92;94.49
28306;BME280;7516;43.570;1.448;2022-08-18T08:11:38;99568.28;;;19.96;94.02
28306;BME280;7516;43.570;1.448;2022-08-18T08:14:22;99575.47;;;19.96;93.98
28306;BME280;7516;43.570;1.448;2022-08-18T08:17:01;99568.59;;;20.00;93.79
28306;BME280;7516;43.570;1.448;2022-08-18T08:20:09;99568.47;;;20.06;94.37
28306;BME280;7516;43.570;1.448;2022-08-18T08:22:43;99567.53;;;20.12;94.16
28306;BME280;7516;43.570;1.448;2022-08-18T08:25:20;99562.81;;;20.31;93.78
28306;BME280;7516;43.570;1.448;2022-08-18T08:27:59;99553.97;;;20.42;93.78
28306;BME280;7516;43.570;1.448;2022-08-18T08:30:34;99563.81;;;20.42;93.68
28306;BME280;7516;43.570;1.448;2022-08-18T08:33:09;99571.34;;;20.45;93.58
28306;BME280;7516;43.570;1.448;2022-08-18T08:35:42;99572.50;;;20.49;92.11
28306;BME280;7516;43.570;1.448;2022-08-18T08:38:17;99581.00;;;20.34;92.65
28306;BME280;7516;43.570;1.448;2022-08-18T08:40:51;99582.88;;;20.22;91.67
28306;BME280;7516;43.570;1.448;2022-08-18T08:43:25;99570.84;;;20.19;91.60
28306;BME280;7516;43.570;1.448;2022-08-18T08:46:05;99576.75;;;20.21;91.18
28306;BME280;7516;43.570;1.448;2022-08-18T08:48:40;99581.34;;;20.38;92.24
28306;BME280;7516;43.570;1.448;2022-08-18T08:54:05;99572.50;;;20.49;90.75
28306;BME280;7516;43.570;1.448;2022-08-18T08:56:41;99579.28;;;20.56;90.61
28306;BME280;7516;43.570;1.448;2022-08-18T08:59:12;99587.19;;;20.68;90.47
28306;BME280;7516;43.570;1.448;2022-08-18T09:01:46;99582.34;;;20.82;90.20
28306;BME280;7516;43.570;1.448;2022-08-18T09:04:23;99585.72;;;20.94;90.44
28306;BME280;7516;43.570;1.448;2022-08-18T09:07:05;99589.22;;;20.94;89.57
28306;BME280;7516;43.570;1.448;2022-08-18T09:09:50;99588.00;;;20.85;89.28
28306;BME280;7516;43.570;1.448;2022-08-18T09:12:35;99606.75;;;20.74;88.06
28306;BME280;7516;43.570;1.448;2022-08-18T09:15:24;99606.88;;;20.10;87.63
28306;BME280;7516;43.570;1.448;2022-08-18T09:18:23;99611.13;;;19.36;89.89
28306;BME280;7516;43.570;1.448;2022-08-18T09:21:02;99620.59;;;19.09;90.87
28306;BME280;7516;43.570;1.448;2022-08-18T09:23:33;99619.88;;;19.02;93.24
28306;BME280;7516;43.570;1.448;2022-08-18T09:26:23;99618.41;;;19.06;93.55
28306;BME280;7516;43.570;1.448;2022-08-18T09:28:58;99610.53;;;19.11;95.82
28306;BME280;7516;43.570;1.448;2022-08-18T09:31:32;99603.59;;;19.10;96.30
28306;BME280;7516;43.570;1.448;2022-08-18T09:34:23;99601.19;;;19.20;96.19
28306;BME280;7516;43.570;1.448;2022-08-18T09:37:04;99603.03;;;19.31;96.70
28306;BME280;7516;43.570;1.448;2022-08-18T09:39:40;99599.59;;;19.42;97.34
28306;BME280;7516;43.570;1.448;2022-08-18T09:42:32;99598.44;;;19.50;97.66
28306;BME280;7516;43.570;1.448;2022-08-18T09:45:09;99594.25;;;19.54;98.27
28306;BME280;7516;43.570;1.448;2022-08-18T09:47:59;99590.34;;;19.57;97.50
28306;BME280;7516;43.570;1.448;2022-08-18T09:50:50;99595.31;;;19.65;98.75
28306;BME280;7516;43.570;1.448;2022-08-18T09:53:34;99603.94;;;19.72;97.91
28306;BME280;7516;43.570;1.448;2022-08-18T09:56:04;99592.94;;;19.80;98.01
28306;BME280;7516;43.570;1.448;2022-08-18T09:58:52;99601.63;;;19.87;99.23
28306;BME280;7516;43.570;1.448;2022-08-18T10:01:37;99600.44;;;19.95;99.14
28306;BME280;7516;43.570;1.448;2022-08-18T10:04:33;99601.59;;;19.99;98.23
28306;BME280;7516;43.570;1.448;2022-08-18T10:07:30;99603.53;;;20.03;99.19
28306;BME280;7516;43.570;1.448;2022-08-18T10:10:17;99605.72;;;20.06;98.65
28306;BME280;7516;43.570;1.448;2022-08-18T10:13:07;99599.47;;;20.12;98.27
28306;BME280;7516;43.570;1.448;2022-08-18T10:15:47;99598.50;;;20.18;98.28
28306;BME280;7516;43.570;1.448;2022-08-18T10:21:17;99605.41;;;20.31;97.78
28306;BME280;7516;43.570;1.448;2022-08-18T10:23:55;99595.00;;;20.29;98.18
28306;BME280;7516;43.570;1.448;2022-08-18T10:29:52;99594.25;;;20.46;97.76
28306;BME280;7516;43.570;1.448;2022-08-18T10:32:44;99588.63;;;20.59;97.56
28306;BME280;7516;43.570;1.448;2022-08-18T10:38:26;99588.16;;;20.62;97.13
28306;BME280;7516;43.570;1.448;2022-08-18T10:40:59;99591.47;;;20.69;97.30
28306;BME280;7516;43.570;1.448;2022-08-18T10:43:36;99591.72;;;20.84;97.25
28306;BME280;7516;43.570;1.448;2022-08-18T10:46:04;99579.59;;;20.93;96.91
28306;BME280;7516;43.570;1.448;2022-08-18T10:48:40;99573.63;;;21.03;96.67
28306;BME280;7516;43.570;1.448;2022-08-18T10:51:15;99571.34;;;21.12;96.83
28306;BME280;7516;43.570;1.448;2022-08-18T10:53:50;99568.78;;;21.17;96.59
28306;BME280;7516;43.570;1.448;2022-08-18T10:56:28;99572.34;;;21.22;96.19
28306;BME280;7516;43.570;1.448;2022-08-18T10:59:06;99574.59;;;21.14;95.08
28306;BME280;7516;43.570;1.448;2022-08-18T11:01:53;99569.25;;;21.14;95.33
28306;BME280;7516;43.570;1.448;2022-08-18T11:04:29;99566.19;;;21.22;95.05
28306;BME280;7516;43.570;1.448;2022-08-18T11:07:07;99577.00;;;21.32;95.05
28306;BME280;7516;43.570;1.448;2022-08-18T11:09:39;99576.03;;;21.38;94.69
28306;BME280;7516;43.570;1.448;2022-08-18T11:12:07;99572.44;;;21.49;93.96
28306;BME280;7516;43.570;1.448;2022-08-18T11:14:53;99574.78;;;21.62;93.95
28306;BME280;7516;43.570;1.448;2022-08-18T11:17:33;99573.91;;;21.78;93.65
28306;BME280;7516;43.570;1.448;2022-08-18T11:20:06;99568.25;;;21.97;93.58
28306;BME280;7516;43.570;1.448;2022-08-18T11:22:35;99573.09;;;22.00;93.00
28306;BME280;7516;43.570;1.448;2022-08-18T11:25:19;99571.56;;;22.04;92.81
28306;BME280;7516;43.570;1.448;2022-08-18T11:27:49;99580.63;;;22.03;92.12
28306;BME280;7516;43.570;1.448;2022-08-18T11:30:27;99564.56;;;21.98;91.34
28306;BME280;7516;43.570;1.448;2022-08-18T11:32:55;99566.22;;;22.04;91.88
28306;BME280;7516;43.570;1.448;2022-08-18T11:35:26;99558.31;;;22.14;90.91
28306;BME280;7516;43.570;1.448;2022-08-18T11:37:57;99571.81;;;22.29;90.39
28306;BME280;7516;43.570;1.448;2022-08-18T11:40:34;99567.41;;;22.45;90.52
28306;BME280;7516;43.570;1.448;2022-08-18T11:43:04;99558.09;;;22.47;89.22
28306;BME280;7516;43.570;1.448;2022-08-18T11:45:55;99569.38;;;22.55;89.18
28306;BME280;7516;43.570;1.448;2022-08-18T11:48:36;99562.03;;;22.67;88.17
28306;BME280;7516;43.570;1.448;2022-08-18T11:51:15;99569.88;;;22.78;87.70
28306;BME280;7516;43.570;1.448;2022-08-18T11:53:52;99564.00;;;22.76;86.67
28306;BME280;7516;43.570;1.448;2022-08-18T11:56:24;99565.78;;;22.71;86.17
28306;BME280;7516;43.570;1.448;2022-08-18T11:58:54;99563.09;;;22.71;85.81
28306;BME280;7516;43.570;1.448;2022-08-18T12:01:36;99558.41;;;22.78;85.60
28306;BME280;7516;43.570;1.448;2022-08-18T12:04:25;99560.38;;;22.93;85.44
28306;BME280;7516;43.570;1.448;2022-08-18T12:07:00;99569.84;;;23.10;85.29
28306;BME280;7516;43.570;1.448;2022-08-18T12:09:34;99558.16;;;23.21;83.83
28306;BME280;7516;43.570;1.448;2022-08-18T12:12:12;99551.22;;;23.25;82.99
28306;BME280;7516;43.570;1.448;2022-08-18T12:14:53;99559.81;;;23.27;82.10
28306;BME280;7516;43.570;1.448;2022-08-18T12:17:22;99563.59;;;23.37;82.88
28306;BME280;7516;43.570;1.448;2022-08-18T12:19:50;99554.03;;;23.46;81.50
28306;BME280;7516;43.570;1.448;2022-08-18T12:22:21;99544.72;;;23.53;81.68
28306;BME280;7516;43.570;1.448;2022-08-18T12:24:49;99551.72;;;23.65;80.14
28306;BME280;7516;43.570;1.448;2022-08-18T12:27:21;99543.69;;;23.65;80.55
28306;BME280;7516;43.570;1.448;2022-08-18T12:29:50;99544.78;;;23.69;80.13
28306;BME280;7516;43.570;1.448;2022-08-18T12:32:18;99561.94;;;23.78;79.18
28306;BME280;7516;43.570;1.448;2022-08-18T12:34:47;99566.75;;;23.76;79.23
28306;BME280;7516;43.570;1.448;2022-08-18T12:37:16;99558.44;;;23.72;78.46
28306;BME280;7516;43.570;1.448;2022-08-18T12:39:45;99555.53;;;23.74;77.51
28306;BME280;7516;43.570;1.448;2022-08-18T12:42:12;99548.03;;;23.81;78.80
28306;BME280;7516;43.570;1.448;2022-08-18T12:44:41;99553.44;;;23.91;78.21
28306;BME280;7516;43.570;1.448;2022-08-18T12:47:11;99566.53;;;23.92;76.51
28306;BME280;7516;43.570;1.448;2022-08-18T12:49:42;99560.38;;;23.82;76.12
28306;BME280;7516;43.570;1.448;2022-08-18T12:52:10;99561.13;;;23.77;77.13
28306;BME280;7516;43.570;1.448;2022-08-18T12:54:37;99562.75;;;23.78;77.32
28306;BME280;7516;43.570;1.448;2022-08-18T12:57:12;99579.91;;;23.82;76.84
28306;BME280;7516;43.570;1.448;2022-08-18T12:59:45;99563.59;;;23.89;75.19
28306;BME280;7516;43.570;1.448;2022-08-18T13:02:13;99560.94;;;23.99;74.71
28306;BME280;7516;43.570;1.448;2022-08-18T13:04:40;99556.16;;;24.11;73.67
28306;BME280;7516;43.570;1.448;2022-08-18T13:07:11;99557.00;;;24.22;73.19
28306;BME280;7516;43.570;1.448;2022-08-18T13:09:40;99558.38;;;24.34;72.56
28306;BME280;7516;43.570;1.448;2022-08-18T13:12:08;99555.72;;;24.45;72.79
28306;BME280;7516;43.570;1.448;2022-08-18T13:14:37;99569.09;;;24.55;72.66
28306;BME280;7516;43.570;1.448;2022-08-18T13:17:06;99550.09;;;24.61;71.98
28306;BME280;7516;43.570;1.448;2022-08-18T13:19:34;99552.25;;;24.69;71.06
28306;BME280;7516;43.570;1.448;2022-08-18T13:22:02;99557.84;;;24.73;70.70
28306;BME280;7516;43.570;1.448;2022-08-18T13:24:30;99558.94;;;24.77;70.20
28306;BME280;7516;43.570;1.448;2022-08-18T13:26:57;99555.97;;;24.73;70.04
28306;BME280;7516;43.570;1.448;2022-08-18T13:29:25;99569.94;;;24.60;70.34
28306;BME280;7516;43.570;1.448;2022-08-18T13:31:52;99567.50;;;24.49;71.35
28306;BME280;7516;43.570;1.448;2022-08-18T13:34:25;99569.66;;;24.42;72.07
28306;BME280;7516;43.570;1.448;2022-08-18T13:36:53;99572.03;;;24.38;72.71
28306;BME280;7516;43.570;1.448;2022-08-18T13:39:22;99561.31;;;24.38;72.83
28306;BME280;7516;43.570;1.448;2022-08-18T13:41:52;99562.94;;;24.39;73.01
28306;BME280;7516;43.570;1.448;2022-08-18T13:44:21;99562.94;;;24.44;72.95
28306;BME280;7516;43.570;1.448;2022-08-18T13:46:49;99553.03;;;24.55;73.78
28306;BME280;7516;43.570;1.448;2022-08-18T13:49:19;99559.75;;;24.67;73.17
28306;BME280;7516;43.570;1.448;2022-08-18T13:51:49;99549.00;;;24.72;73.29
28306;BME280;7516;43.570;1.448;2022-08-18T13:54:21;99538.28;;;24.78;73.16